Time;durP1;ratioP1;P1;durP2;ratioP2;P2;SDS_P1;SDS_P2;PMS_P1;PMS_P2;Temp;Humidity;BMP_temperature;BMP_pressure;BME280_temperature;BME280_humidity;BME280_pressure;Samples;Min_cycle;Max_cycle;Signal;HPM_P1;HPM_P2
2023/03/12 00:00:46;;;;;;;5.68;3.80;;;5.50;99.90;;;;;;5032057;28;20504;-56
2023/03/12 00:03:12;;;;;;;5.07;3.78;;;5.40;99.90;;;;;;5029495;28;20029;-55
2023/03/12 00:05:41;;;;;;;5.72;3.47;;;5.70;99.90;;;;;;5028637;28;20486;-56
2023/03/12 00:08:07;;;;;;;6.75;2.88;;;5.60;99.90;;;;;;5025141;28;20042;-56
2023/03/12 00:10:33;;;;;;;4.13;2.30;;;5.50;99.90;;;;;;5025155;28;20026;-57
2023/03/12 00:13:00;;;;;;;4.07;2.72;;;;;;;;;;5031956;28;20389;-57
2023/03/12 00:15:26;;;;;;;4.47;2.63;;;5.30;99.90;;;;;;5026844;28;20021;-56
2023/03/12 00:17:52;;;;;;;3.45;2.65;;;5.20;99.90;;;;;;5030443;28;20489;-56
2023/03/12 00:20:19;;;;;;;3.45;2.22;;;;;;;;;;5024478;28;20078;-56
2023/03/12 00:22:45;;;;;;;4.47;2.92;;;;;;;;;;5022971;28;20643;-56
2023/03/12 00:25:14;;;;;;;3.60;2.78;;;5.50;99.90;;;;;;5030762;28;20029;-56
2023/03/12 00:27:40;;;;;;;2.70;2.50;;;5.50;99.90;;;;;;5029835;28;20028;-56
2023/03/12 00:30:06;;;;;;;4.90;2.78;;;5.60;99.90;;;;;;5031698;28;20396;-56
2023/03/12 00:32:33;;;;;;;3.83;2.60;;;5.60;99.90;;;;;;5029506;28;20045;-56
2023/03/12 00:34:59;;;;;;;4.45;2.60;;;5.50;99.90;;;;;;5028110;28;20026;-56
2023/03/12 00:37:25;;;;;;;4.10;2.75;;;5.40;99.90;;;;;;5041194;28;20041;-56
2023/03/12 00:39:51;;;;;;;4.68;3.10;;;5.50;99.90;;;;;;5029878;28;20483;-56
2023/03/12 00:42:17;;;;;;;4.38;2.95;;;5.50;99.90;;;;;;5025555;28;20034;-56
2023/03/12 00:44:43;;;;;;;4.35;2.90;;;5.50;99.90;;;;;;5014606;28;20452;-56
2023/03/12 00:47:09;;;;;;;3.83;2.72;;;5.50;99.90;;;;;;5024768;28;20116;-56
2023/03/12 00:49:35;;;;;;;5.72;2.72;;;5.60;99.90;;;;;;5028251;28;20034;-56
2023/03/12 00:52:01;;;;;;;2.92;2.05;;;5.70;99.90;;;;;;5029800;28;20508;-55
2023/03/12 00:54:26;;;;;;;3.85;2.30;;;5.60;99.90;;;;;;5031009;28;20037;-55
2023/03/12 00:56:52;;;;;;;4.57;2.88;;;5.60;99.90;;;;;;5023211;28;20100;-56
2023/03/12 00:59:18;;;;;;;4.95;2.70;;;5.80;99.90;;;;;;5031053;28;20049;-56
2023/03/12 01:01:43;;;;;;;3.35;2.40;;;5.90;99.90;;;;;;5032218;28;20040;-56
2023/03/12 01:04:09;;;;;;;4.07;2.45;;;6.00;99.90;;;;;;5031894;28;20413;-56
2023/03/12 01:06:35;;;;;;;4.78;3.33;;;6.10;99.90;;;;;;5024429;28;20053;-56
2023/03/12 01:09:04;;;;;;;4.22;2.75;;;6.00;99.90;;;;;;5025274;28;20466;-56
2023/03/12 01:11:31;;;;;;;3.15;2.63;;;5.90;99.90;;;;;;5030138;28;20041;-56
2023/03/12 01:13:58;;;;;;;4.43;2.70;;;5.70;99.90;;;;;;5022130;28;20025;-56
2023/03/12 01:16:29;;;;;;;5.43;2.80;;;5.50;99.90;;;;;;5028523;28;20056;-56
2023/03/12 01:18:56;;;;;;;3.53;2.63;;;5.40;99.90;;;;;;5027212;28;20087;-56
2023/03/12 01:21:22;;;;;;;3.65;2.47;;;5.30;99.90;;;;;;5029631;28;20104;-56
2023/03/12 01:23:48;;;;;;;4.60;2.30;;;5.20;99.90;;;;;;5023837;28;20048;-56
2023/03/12 01:26:14;;;;;;;3.85;2.47;;;5.10;99.90;;;;;;5028273;28;20485;-56
2023/03/12 01:28:39;;;;;;;4.05;2.60;;;5.10;99.90;;;;;;5026741;28;20432;-56
2023/03/12 01:31:07;;;;;;;4.15;2.58;;;5.10;99.90;;;;;;5032353;28;20174;-56
2023/03/12 01:33:32;;;;;;;3.55;2.55;;;5.20;99.90;;;;;;5021881;28;20397;-56
2023/03/12 01:35:58;;;;;;;4.00;2.47;;;5.40;99.90;;;;;;5027005;28;20032;-56
2023/03/12 01:38:24;;;;;;;5.18;2.30;;;5.30;99.90;;;;;;5019637;28;20592;-56
2023/03/12 01:40:50;;;;;;;3.25;2.22;;;5.40;99.90;;;;;;5029946;28;20433;-57
2023/03/12 01:43:34;;;;;;;2.83;2.28;;;5.60;99.90;;;;;;5026055;28;20017;-57
2023/03/12 01:46:03;;;;;;;3.55;2.45;;;5.70;99.90;;;;;;5027844;28;20069;-56
2023/03/12 01:48:46;;;;;;;3.72;2.97;;;5.80;99.90;;;;;;5032258;28;20496;-56
2023/03/12 01:51:13;;;;;;;4.65;3.17;;;5.80;99.90;;;;;;5030007;28;20106;-56
2023/03/12 01:53:44;;;;;;;3.42;2.53;;;5.80;99.90;;;;;;5019609;28;20030;-56
2023/03/12 01:56:11;;;;;;;7.22;3.05;;;5.80;99.90;;;;;;5027104;28;20056;-55
2023/03/12 01:58:41;;;;;;;4.20;3.17;;;5.80;99.90;;;;;;5029568;28;20485;-56
2023/03/12 02:01:07;;;;;;;4.57;2.90;;;5.90;99.90;;;;;;5031685;28;20029;-56
2023/03/12 02:03:34;;;;;;;6.07;3.13;;;5.80;99.90;;;;;;5032125;28;20529;-56
2023/03/12 02:06:10;;;;;;;3.55;2.50;;;5.60;99.90;;;;;;5025589;28;20040;-56
2023/03/12 02:08:40;;;;;;;4.10;2.17;;;5.10;99.90;;;;;;5031197;28;20029;-56
2023/03/12 02:11:06;;;;;;;2.55;2.10;;;4.70;99.90;;;;;;5024046;28;20366;-56
2023/03/12 02:13:32;;;;;;;3.22;2.22;;;4.60;99.90;;;;;;5027240;28;20032;-56
2023/03/12 02:15:58;;;;;;;3.15;2.67;;;4.40;99.90;;;;;;5029492;28;20036;-56
2023/03/12 02:18:24;;;;;;;5.60;2.85;;;4.40;99.90;;;;;;5026293;28;20026;-56
2023/03/12 02:20:53;;;;;;;5.28;3.72;;;4.30;99.90;;;;;;5028047;28;20069;-55
2023/03/12 02:23:56;;;;;;;4.97;3.30;;;4.30;99.90;;;;;;5022382;28;20151;-56
2023/03/12 02:26:24;;;;;;;4.60;3.78;;;4.30;99.90;;;;;;5024215;28;20737;-56
2023/03/12 02:28:51;;;;;;;6.00;4.05;;;4.30;99.90;;;;;;5026037;28;20108;-56
2023/03/12 02:31:20;;;;;;;5.32;3.72;;;4.20;99.90;;;;;;5025989;28;20033;-56
2023/03/12 02:33:46;;;;;;;4.75;3.50;;;4.30;99.90;;;;;;5011038;28;20030;-56
2023/03/12 02:36:12;;;;;;;6.97;4.88;;;4.30;99.90;;;;;;5025601;28;20079;-56
2023/03/12 02:38:37;;;;;;;8.38;5.07;;;4.50;99.90;;;;;;5020230;28;20370;-56
2023/03/12 02:41:27;;;;;;;10.52;5.30;;;4.70;99.90;;;;;;5023444;28;20017;-56
2023/03/12 02:44:17;;;;;;;3.70;2.80;;;4.70;99.90;;;;;;5026561;28;20021;-56
2023/03/12 02:46:49;;;;;;;5.25;3.35;;;4.50;99.90;;;;;;5046033;28;20041;-56
2023/03/12 02:49:16;;;;;;;5.60;2.78;;;4.70;99.90;;;;;;5025313;28;20518;-56
2023/03/12 02:51:43;;;;;;;6.75;3.20;;;4.70;99.90;;;;;;5027891;28;20450;-56
2023/03/12 02:54:10;;;;;;;4.38;3.05;;;4.80;99.90;;;;;;5015634;28;20026;-56
2023/03/12 02:56:37;;;;;;;4.47;3.53;;;4.80;99.90;;;;;;5026943;28;20088;-56
2023/03/12 02:59:03;;;;;;;9.40;5.85;;;4.80;99.90;;;;;;5026934;28;20017;-55
2023/03/12 03:01:32;;;;;;;9.80;5.60;;;4.80;99.90;;;;;;5025232;28;20029;-56
2023/03/12 03:03:59;;;;;;;4.72;3.50;;;4.80;99.90;;;;;;5020896;28;20030;-56
2023/03/12 03:06:25;;;;;;;8.75;5.05;;;4.80;99.90;;;;;;5022228;28;20041;-56
2023/03/12 03:08:51;;;;;;;7.40;4.55;;;4.80;99.90;;;;;;5027833;28;20022;-56
2023/03/12 03:11:17;;;;;;;10.13;6.10;;;4.90;99.90;;;;;;5022196;28;20367;-56
2023/03/12 03:13:44;;;;;;;9.23;3.97;;;4.80;99.90;;;;;;5021089;28;20028;-57
2023/03/12 03:16:11;;;;;;;4.60;3.17;;;4.90;99.90;;;;;;5026632;28;20029;-56
2023/03/12 03:18:37;;;;;;;5.65;4.03;;;4.90;99.90;;;;;;5021236;28;20080;-56
2023/03/12 03:21:05;;;;;;;7.05;5.00;;;4.80;99.90;;;;;;5030777;28;20046;-56
2023/03/12 03:23:31;;;;;;;10.55;6.50;;;4.70;99.90;;;;;;5024175;28;20026;-56
2023/03/12 03:25:58;;;;;;;10.80;7.15;;;4.70;99.90;;;;;;5021380;28;20489;-56
2023/03/12 03:28:26;;;;;;;14.63;7.60;;;4.80;99.90;;;;;;5027438;28;20026;-56
2023/03/12 03:30:54;;;;;;;7.45;4.97;;;4.80;99.90;;;;;;5031032;28;20025;-56
2023/03/12 03:33:20;;;;;;;14.55;8.02;;;4.80;99.90;;;;;;5028794;28;20029;-56
2023/03/12 03:35:47;;;;;;;12.90;7.43;;;4.80;99.90;;;;;;5025194;28;20036;-56
2023/03/12 03:38:13;;;;;;;8.70;4.47;;;4.80;99.90;;;;;;5026933;28;20564;-56
2023/03/12 03:40:38;;;;;;;9.27;5.25;;;4.80;99.90;;;;;;5044938;28;20121;-56
2023/03/12 03:43:04;;;;;;;15.90;7.57;;;4.70;99.90;;;;;;5028614;28;20043;-56
2023/03/12 03:45:30;;;;;;;12.75;6.72;;;4.70;99.90;;;;;;5040495;28;20037;-56
2023/03/12 03:47:56;;;;;;;15.43;7.50;;;4.70;99.90;;;;;;5026488;28;20029;-56
2023/03/12 03:50:21;;;;;;;14.48;6.82;;;4.70;99.90;;;;;;5027106;28;20025;-56
2023/03/12 03:52:47;;;;;;;13.68;7.45;;;4.70;99.90;;;;;;5028360;28;20037;-56
2023/03/12 03:55:13;;;;;;;6.63;4.13;;;4.80;99.90;;;;;;5025180;28;20053;-56
2023/03/12 03:57:39;;;;;;;6.38;4.20;;;4.60;99.90;;;;;;5028749;28;20034;-56
2023/03/12 04:00:08;;;;;;;18.08;8.90;;;4.60;99.90;;;;;;5024800;28;20041;-56
2023/03/12 04:02:34;;;;;;;22.20;11.43;;;4.60;99.90;;;;;;5020821;28;20034;-58
2023/03/12 04:05:01;;;;;;;17.75;9.88;;;4.70;99.90;;;;;;5022205;28;20076;-55
2023/03/12 04:07:27;;;;;;;21.38;11.15;;;4.80;99.90;;;;;;5019257;28;20606;-56
2023/03/12 04:09:53;;;;;;;7.60;5.07;;;4.70;99.90;;;;;;5043720;28;20041;-56
2023/03/12 04:12:19;;;;;;;20.55;10.70;;;4.70;99.90;;;;;;5024386;28;20113;-56
2023/03/12 04:14:45;;;;;;;22.42;12.48;;;4.70;99.90;;;;;;5026191;28;20109;-56
2023/03/12 04:17:10;;;;;;;9.85;5.22;;;4.70;99.90;;;;;;5023952;28;20055;-56
2023/03/12 04:19:36;;;;;;;9.55;5.30;;;4.60;99.90;;;;;;5029362;28;20037;-56
2023/03/12 04:22:02;;;;;;;5.82;4.47;;;4.60;99.90;;;;;;5013644;28;20054;-57
2023/03/12 04:24:28;;;;;;;6.32;5.07;;;4.40;99.90;;;;;;5027832;28;20036;-56
2023/03/12 04:26:53;;;;;;;14.75;8.35;;;4.40;99.90;;;;;;5032035;28;20022;-56
2023/03/12 04:29:19;;;;;;;18.70;10.30;;;4.40;99.90;;;;;;5031713;28;20509;-56
2023/03/12 04:31:45;;;;;;;24.48;13.32;;;4.50;99.90;;;;;;5026787;28;20042;-57
2023/03/12 04:34:11;;;;;;;20.35;10.07;;;4.60;99.90;;;;;;5030139;28;20060;-56
2023/03/12 04:36:37;;;;;;;12.73;6.88;;;4.60;99.90;;;;;;5031682;28;20032;-56
2023/03/12 04:39:06;;;;;;;13.60;8.20;;;4.60;99.90;;;;;;5028246;28;20017;-56
2023/03/12 04:41:33;;;;;;;19.15;9.60;;;4.70;99.90;;;;;;5051985;28;20064;-56
2023/03/12 04:43:58;;;;;;;13.40;7.60;;;4.70;99.90;;;;;;5025808;28;20485;-56
2023/03/12 04:46:24;;;;;;;22.15;11.07;;;4.70;99.90;;;;;;5021826;28;20106;-56
2023/03/12 04:48:50;;;;;;;21.35;11.07;;;4.70;99.90;;;;;;5030195;28;21016;-56
2023/03/12 04:51:16;;;;;;;20.80;10.75;;;4.70;99.90;;;;;;5023339;28;20117;-56
2023/03/12 04:53:41;;;;;;;11.30;6.72;;;4.70;99.90;;;;;;5044334;28;20037;-56
2023/03/12 04:56:07;;;;;;;12.98;6.82;;;4.60;99.90;;;;;;5026742;28;20026;-56
2023/03/12 04:58:34;;;;;;;20.63;11.32;;;4.60;99.90;;;;;;5026425;28;20029;-56
2023/03/12 05:01:00;;;;;;;12.63;7.07;;;4.50;99.90;;;;;;5029625;28;20388;-56
2023/03/12 05:03:27;;;;;;;8.45;5.30;;;4.50;99.90;;;;;;5028467;28;20107;-56
2023/03/12 05:05:52;;;;;;;29.83;15.75;;;4.30;99.90;;;;;;5033430;28;20466;-56
2023/03/12 05:08:18;;;;;;;18.17;10.55;;;4.40;99.90;;;;;;5029991;28;20025;-56
2023/03/12 05:10:44;;;;;;;6.25;5.45;;;4.50;99.90;;;;;;5032772;28;20063;-57
2023/03/12 05:13:20;;;;;;;7.53;4.57;;;4.50;99.90;;;;;;5029054;28;20383;-56
2023/03/12 05:15:49;;;;;;;17.58;9.30;;;4.50;99.90;;;;;;5032410;28;20026;-56
2023/03/12 05:18:15;;;;;;;13.07;8.25;;;4.50;99.90;;;;;;5027164;28;20056;-56
2023/03/12 05:20:41;;;;;;;11.00;7.30;;;4.50;99.90;;;;;;5031654;28;20475;-56
2023/03/12 05:23:06;;;;;;;7.07;5.22;;;4.60;99.90;;;;;;5031583;28;20491;-56
2023/03/12 05:25:32;;;;;;;14.10;7.72;;;4.60;99.90;;;;;;5025740;28;20120;-56
2023/03/12 05:27:58;;;;;;;12.85;8.18;;;4.60;99.90;;;;;;5030493;28;20033;-56
2023/03/12 05:30:24;;;;;;;13.82;8.27;;;4.70;99.90;;;;;;5030735;28;20037;-56
2023/03/12 05:32:49;;;;;;;10.48;6.88;;;4.70;99.90;;;;;;5024719;28;20069;-56
2023/03/12 05:35:15;;;;;;;10.73;7.80;;;4.60;99.90;;;;;;5031175;28;20108;-56
2023/03/12 05:37:41;;;;;;;13.25;7.43;;;4.70;99.90;;;;;;5029112;28;20083;-56
2023/03/12 05:40:10;;;;;;;11.90;6.72;;;4.80;99.90;;;;;;5027846;28;20662;-56
2023/03/12 05:42:36;;;;;;;8.18;5.80;;;4.90;99.90;;;;;;5028281;28;20040;-56
2023/03/12 05:45:04;;;;;;;9.25;6.53;;;4.90;99.90;;;;;;5025995;28;20021;-56
2023/03/12 05:47:30;;;;;;;9.93;6.05;;;4.90;99.90;;;;;;5039781;28;20053;-56
2023/03/12 05:49:55;;;;;;;9.60;6.70;;;5.10;99.90;;;;;;5025980;28;20053;-56
2023/03/12 05:52:21;;;;;;;6.90;4.95;;;5.10;99.90;;;;;;5038320;28;20501;-56
2023/03/12 05:54:47;;;;;;;11.05;6.80;;;5.10;99.90;;;;;;5027196;28;20030;-56
2023/03/12 05:57:13;;;;;;;9.45;6.80;;;5.10;99.90;;;;;;5029116;28;20505;-56
2023/03/12 05:59:38;;;;;;;13.23;10.73;;;5.20;99.90;;;;;;5022049;28;20026;-56
2023/03/12 06:02:05;;;;;;;8.55;6.40;;;5.20;99.90;;;;;;5022418;28;20026;-57
2023/03/12 06:04:30;;;;;;;8.27;7.00;;;5.00;99.90;;;;;;5027237;28;20030;-56
2023/03/12 06:06:56;;;;;;;9.07;6.07;;;5.10;99.90;;;;;;5025677;28;20071;-56
2023/03/12 06:09:22;;;;;;;10.90;7.40;;;5.20;99.90;;;;;;5020772;28;20037;-57
2023/03/12 06:11:47;;;;;;;8.15;5.45;;;5.30;99.90;;;;;;5029284;28;20481;-56
2023/03/12 06:14:13;;;;;;;7.28;5.50;;;5.50;99.90;;;;;;5030702;28;20013;-57
2023/03/12 06:16:39;;;;;;;7.60;5.70;;;5.50;99.90;;;;;;5022286;28;20028;-57
2023/03/12 06:19:06;;;;;;;7.32;5.43;;;5.60;99.90;;;;;;5030176;28;20029;-56
2023/03/12 06:21:34;;;;;;;10.00;6.43;;;5.70;99.90;;;;;;5021344;28;20489;-57
2023/03/12 06:24:01;;;;;;;7.28;5.82;;;5.90;99.90;;;;;;5023799;28;20025;-56
2023/03/12 06:26:27;;;;;;;14.82;9.40;;;6.10;99.90;;;;;;5019974;28;20527;-56
2023/03/12 06:28:53;;;;;;;16.77;13.40;;;6.20;99.90;;;;;;5025395;28;20029;-56
2023/03/12 06:31:20;;;;;;;9.80;7.68;;;6.20;99.90;;;;;;5029506;28;20477;-56
2023/03/12 06:33:46;;;;;;;16.77;15.07;;;6.10;99.90;;;;;;5027667;28;20080;-56
2023/03/12 06:36:12;;;;;;;9.02;6.43;;;6.20;99.90;;;;;;5025368;28;20053;-53
2023/03/12 06:38:39;;;;;;;9.13;7.07;;;6.20;99.90;;;;;;5022284;28;20100;-61
2023/03/12 06:41:13;;;;;;;7.70;5.93;;;6.40;99.90;;;;;;5029335;28;20032;-60
2023/03/12 06:43:40;;;;;;;12.82;6.07;;;6.20;99.90;;;;;;5024227;28;20021;-58
2023/03/12 06:46:08;;;;;;;9.00;6.70;;;6.30;99.90;;;;;;5028681;28;20021;-59
2023/03/12 06:48:35;;;;;;;10.80;6.78;;;6.70;99.90;;;;;;5025457;28;20481;-60
2023/03/12 06:51:04;;;;;;;8.20;6.05;;;6.90;99.90;;;;;;5022643;28;20043;-59
2023/03/12 06:53:30;;;;;;;8.02;5.95;;;6.90;99.90;;;;;;4978211;28;20500;-59
2023/03/12 06:55:56;;;;;;;9.52;6.18;;;7.10;99.90;;;;;;5024719;28;20072;-59
2023/03/12 06:58:22;;;;;;;7.38;5.68;;;7.30;99.90;;;;;;5026967;28;20033;-59
2023/03/12 07:00:49;;;;;;;6.80;5.30;;;7.70;99.90;;;;;;5024373;28;20481;-59
2023/03/12 07:03:15;;;;;;;8.02;5.72;;;8.40;99.90;;;;;;5027203;28;20053;-60
2023/03/12 07:05:45;;;;;;;6.90;5.32;;;8.60;99.90;;;;;;5000178;28;20539;-60
2023/03/12 07:08:11;;;;;;;15.10;12.63;;;8.90;99.90;;;;;;5026995;28;20021;-60
2023/03/12 07:10:37;;;;;;;8.45;6.00;;;9.30;99.90;;;;;;5028454;28;20076;-60
2023/03/12 07:13:02;;;;;;;8.88;7.47;;;9.60;99.90;;;;;;5028411;28;20065;-60
2023/03/12 07:15:28;;;;;;;6.85;4.85;;;10.20;99.90;;;;;;5028420;28;20025;-60
2023/03/12 07:17:54;;;;;;;5.97;4.88;;;11.20;99.90;;;;;;4979402;28;20212;-60
2023/03/12 07:20:20;;;;;;;5.65;4.05;;;10.80;99.90;;;;;;5029215;28;20073;-60
2023/03/12 07:22:45;;;;;;;5.68;4.57;;;10.40;99.90;;;;;;5029603;28;20055;-60
2023/03/12 07:25:11;;;;;;;5.07;3.80;;;11.00;99.90;;;;;;5045375;28;20068;-60
2023/03/12 07:27:37;;;;;;;5.68;4.10;;;10.60;99.70;;;;;;5041503;28;20493;-60
2023/03/12 07:30:04;;;;;;;5.03;3.53;;;10.40;99.90;;;;;;5025457;28;20032;-60
2023/03/12 07:32:32;;;;;;;7.70;4.32;;;10.30;99.90;;;;;;5011689;28;20045;-61
2023/03/12 07:34:57;;;;;;;4.63;3.55;;;9.90;99.90;;;;;;5018972;28;20075;-60
2023/03/12 07:37:23;;;;;;;4.57;3.30;;;9.40;99.90;;;;;;5027209;28;20030;-60
2023/03/12 07:39:51;;;;;;;7.57;4.05;;;9.30;99.90;;;;;;5026444;28;20022;-60
2023/03/12 07:42:17;;;;;;;6.90;3.88;;;10.20;99.90;;;;;;5038186;28;20045;-61
2023/03/12 07:44:43;;;;;;;5.00;3.72;;;11.40;99.90;;;;;;5057460;28;20124;-60
2023/03/12 07:47:09;;;;;;;3.60;2.97;;;11.10;99.90;;;;;;5025359;28;20037;-61
2023/03/12 07:49:34;;;;;;;4.10;3.10;;;11.20;97.70;;;;;;5021373;28;20032;-60
2023/03/12 07:52:00;;;;;;;4.05;3.55;;;10.10;96.70;;;;;;5023783;28;20080;-61
2023/03/12 07:54:29;;;;;;;3.60;2.80;;;9.60;98.00;;;;;;5026134;28;20026;-60
2023/03/12 07:56:56;;;;;;;3.55;2.42;;;9.20;97.00;;;;;;5029040;28;20084;-61
2023/03/12 07:59:22;;;;;;;4.10;2.92;;;9.10;96.40;;;;;;5025418;28;20041;-60
2023/03/12 08:01:48;;;;;;;3.40;2.47;;;9.30;96.90;;;;;;5027597;28;20030;-61
2023/03/12 08:04:15;;;;;;;4.35;3.20;;;9.10;96.20;;;;;;5064861;28;20076;-61
2023/03/12 08:06:41;;;;;;;3.92;2.63;;;9.10;96.60;;;;;;5023120;28;20359;-60
2023/03/12 08:09:08;;;;;;;2.67;2.38;;;8.70;96.80;;;;;;5027006;28;20040;-60
2023/03/12 08:11:35;;;;;;;4.80;3.42;;;8.30;96.50;;;;;;5029283;28;20127;-60
2023/03/12 08:14:02;;;;;;;3.65;2.10;;;8.20;96.90;;;;;;5030337;28;20129;-60
2023/03/12 08:16:28;;;;;;;3.65;2.05;;;8.40;97.10;;;;;;5026298;28;20120;-60
2023/03/12 08:18:54;;;;;;;5.18;3.28;;;8.50;97.40;;;;;;5024622;28;20113;-61
2023/03/12 08:21:20;;;;;;;4.10;2.80;;;8.60;97.90;;;;;;5030775;28;20577;-60
2023/03/12 08:23:45;;;;;;;4.80;2.85;;;8.40;97.30;;;;;;5031257;28;20104;-61
2023/03/12 08:26:11;;;;;;;10.02;6.15;;;8.40;97.20;;;;;;5027844;28;20488;-59
2023/03/12 08:28:37;;;;;;;3.58;3.08;;;8.80;98.60;;;;;;5028645;28;20040;-60
2023/03/12 08:31:03;;;;;;;12.55;7.47;;;8.70;97.80;;;;;;5027323;28;20060;-59
2023/03/12 08:33:28;;;;;;;42.83;20.70;;;8.60;96.90;;;;;;5024782;28;20033;-60
2023/03/12 08:35:54;;;;;;;30.90;17.20;;;8.50;96.70;;;;;;5033417;28;20396;-61
2023/03/12 08:38:20;;;;;;;4.38;3.00;;;8.90;96.50;;;;;;5028623;28;20055;-60
2023/03/12 08:40:52;;;;;;;21.40;12.45;;;8.80;95.50;;;;;;5026649;28;20022;-59
2023/03/12 08:43:18;;;;;;;5.13;3.97;;;9.00;96.00;;;;;;5025142;28;20079;-60
2023/03/12 08:45:44;;;;;;;16.33;10.98;;;9.30;97.10;;;;;;5025772;28;20448;-59
2023/03/12 08:48:10;;;;;;;32.47;19.08;;;9.40;96.30;;;;;;5027216;28;20436;-60
2023/03/12 08:50:35;;;;;;;13.10;8.23;;;9.20;94.70;;;;;;5026591;28;20021;-60
2023/03/12 08:53:01;;;;;;;3.60;3.13;;;9.10;94.60;;;;;;5042433;28;20041;-60
2023/03/12 08:55:28;;;;;;;5.88;4.47;;;9.20;95.20;;;;;;5026430;28;20029;-60
2023/03/12 08:57:55;;;;;;;4.10;2.80;;;9.40;95.00;;;;;;5025810;28;20029;-60
2023/03/12 09:00:21;;;;;;;3.45;2.80;;;9.20;95.10;;;;;;5024806;28;20120;-60
2023/03/12 09:02:48;;;;;;;8.07;4.78;;;9.20;95.70;;;;;;5014522;28;20033;-60
2023/03/12 09:05:14;;;;;;;19.92;9.65;;;9.10;96.20;;;;;;5014373;28;20037;-60
2023/03/12 09:07:40;;;;;;;15.65;9.40;;;9.10;95.80;;;;;;5016046;28;20458;-59
2023/03/12 09:10:07;;;;;;;3.80;3.10;;;9.50;96.40;;;;;;5049071;28;20393;-59
2023/03/12 09:12:32;;;;;;;12.35;6.30;;;9.60;95.40;;;;;;5047968;28;20158;-60
2023/03/12 09:14:58;;;;;;;7.38;5.72;;;9.70;94.30;;;;;;5033603;28;20485;-55
2023/03/12 09:17:24;;;;;;;50.15;19.13;;;9.60;95.70;;;;;;5033917;28;20029;-57
2023/03/12 09:19:50;;;;;;;10.02;5.32;;;10.00;94.60;;;;;;5034032;28;20029;-58
2023/03/12 09:22:16;;;;;;;21.92;11.63;;;10.50;95.70;;;;;;5031924;28;20128;-56
2023/03/12 09:24:42;;;;;;;9.68;4.95;;;11.40;95.50;;;;;;5032186;28;20034;-56
2023/03/12 09:27:07;;;;;;;13.80;7.28;;;11.20;99.20;;;;;;5034418;28;20048;-56
2023/03/12 09:29:35;;;;;;;20.20;9.98;;;11.80;93.20;;;;;;5033840;28;20112;-56
2023/03/12 09:32:01;;;;;;;55.10;21.55;;;11.90;93.20;;;;;;5033922;28;20037;-55
2023/03/12 09:34:26;;;;;;;129.27;49.67;;;11.40;92.00;;;;;;5034074;28;20429;-55
2023/03/12 09:36:52;;;;;;;23.60;11.52;;;11.50;91.40;;;;;;5033823;28;20064;-56
2023/03/12 09:39:19;;;;;;;73.82;31.80;;;;;;;;;;5031519;28;20091;-56
2023/03/12 09:41:47;;;;;;;27.42;13.68;;;12.60;99.90;;;;;;5024758;28;20055;-56
2023/03/12 09:44:41;;;;;;;13.10;6.75;;;12.70;92.40;;;;;;5016287;28;20087;-56
2023/03/12 09:47:14;;;;;;;5.38;3.60;;;;;;;;;;5027861;28;20558;-55
2023/03/12 09:49:45;;;;;;;65.20;30.13;;;13.00;91.20;;;;;;5031671;28;20025;-55
2023/03/12 09:52:34;;;;;;;40.00;18.97;;;13.50;93.20;;;;;;5033533;28;20052;-55
2023/03/12 09:55:18;;;;;;;19.95;9.82;;;13.40;90.40;;;;;;5033518;28;20021;-55
2023/03/12 09:57:46;;;;;;;108.05;41.60;;;14.10;90.40;;;;;;5033035;28;20053;-55
2023/03/12 10:00:23;;;;;;;82.75;38.03;;;;;;;;;;5030311;28;20029;-55
2023/03/12 10:03:04;;;;;;;15.13;8.02;;;14.10;99.90;;;;;;5028303;28;20048;-56
2023/03/12 10:05:36;;;;;;;11.35;6.18;;;;;;;;;;5027014;28;20030;-56
2023/03/12 10:08:02;;;;;;;;;;;;;;;;;;5031269;28;20120;-55
2023/03/12 10:10:37;;;;;;;12.57;6.28;;;;;;;;;;5031118;28;19909;-55
2023/03/12 10:13:03;;;;;;;48.03;19.25;;;;;;;;;;5030129;28;20112;-55
2023/03/12 10:15:47;;;;;;;6.50;5.18;;;15.80;86.00;;;;;;5030853;28;20025;-56
2023/03/12 10:18:33;;;;;;;5.25;3.22;;;;;;;;;;5030384;28;21568;-56
2023/03/12 10:21:19;;;;;;;11.45;5.60;;;15.70;95.20;;;;;;5029500;28;20076;-56
2023/03/12 10:23:48;;;;;;;8.40;4.97;;;15.40;83.00;;;;;;5030959;28;20025;-57
2023/03/12 10:26:17;;;;;;;39.85;16.52;;;14.40;83.70;;;;;;5030998;28;20519;-56
2023/03/12 10:28:57;;;;;;;26.42;12.30;;;13.80;83.20;;;;;;5030874;28;20021;-57
2023/03/12 10:31:29;;;;;;;52.58;23.85;;;;;;;;;;5029105;28;20087;-51
2023/03/12 10:33:55;;;;;;;;;;;;;;;;;;5032014;28;20434;-56
2023/03/12 10:36:39;;;;;;;7.60;4.38;;;14.60;88.00;;;;;;5031624;28;20004;-55
2023/03/12 10:39:31;;;;;;;8.00;4.32;;;15.10;84.70;;;;;;5012549;28;20109;-55
2023/03/12 10:41:59;;;;;;;12.77;5.95;;;13.20;83.60;;;;;;5015877;28;20077;-55
2023/03/12 10:44:25;;;;;;;26.17;12.75;;;;;;;;;;5042953;28;20040;-55
2023/03/12 10:47:34;;;;;;;6.22;3.70;;;11.50;90.20;;;;;;5026430;28;20026;-56
2023/03/12 10:50:12;;;;;;;13.27;6.47;;;12.90;85.40;;;;;;5009914;28;20034;-56
2023/03/12 10:52:38;;;;;;;4.97;3.58;;;13.60;84.90;;;;;;5010480;28;20510;-56
2023/03/12 10:55:28;;;;;;;53.70;24.95;;;14.10;84.20;;;;;;4992995;28;20034;-55
2023/03/12 10:57:55;;;;;;;85.10;39.95;;;;;;;;;;5010330;28;20026;-56
2023/03/12 11:00:22;;;;;;;6.68;4.85;;;14.80;99.90;;;;;;5010097;28;20056;-58
2023/03/12 11:02:58;;;;;;;8.00;5.05;;;;;;;;;;5010410;28;20038;-56
2023/03/12 11:05:25;;;;;;;10.40;5.95;;;14.40;93.60;;;;;;5010035;28;20049;-55
2023/03/12 11:07:51;;;;;;;8.25;4.65;;;13.60;83.70;;;;;;5010069;28;20116;-55
2023/03/12 11:10:19;;;;;;;3.17;2.40;;;;;;;;;;5010166;28;20114;-55
2023/03/12 11:12:57;;;;;;;7.68;5.68;;;14.40;83.60;;;;;;5010195;28;20371;-55
2023/03/12 11:15:23;;;;;;;8.88;5.65;;;14.30;85.10;;;;;;5010120;28;20041;-55
2023/03/12 11:17:49;;;;;;;3.25;2.90;;;13.80;80.90;;;;;;5009966;28;20030;-56
2023/03/12 11:20:26;;;;;;;12.55;8.00;;;13.70;82.20;;;;;;5010823;28;20045;-55
2023/03/12 11:22:51;;;;;;;23.85;14.18;;;14.50;82.90;;;;;;5026312;28;20073;-56
2023/03/12 11:25:26;;;;;;;51.17;28.35;;;13.90;82.40;;;;;;5010331;28;20486;-55
2023/03/12 11:27:55;;;;;;;6.68;4.25;;;13.30;82.00;;;;;;5013356;28;20029;-55
2023/03/12 11:30:31;;;;;;;7.65;5.25;;;13.80;84.60;;;;;;5047298;28;20049;-56
2023/03/12 11:32:56;;;;;;;9.15;6.13;;;13.20;83.60;;;;;;5016291;28;20042;-56
2023/03/12 11:35:47;;;;;;;5.78;4.60;;;13.80;85.90;;;;;;5030893;28;20044;-56
2023/03/12 11:38:17;;;;;;;5.85;4.55;;;14.00;84.00;;;;;;5016385;28;20026;-56
2023/03/12 11:40:49;;;;;;;6.95;5.80;;;13.90;83.00;;;;;;5021332;28;20034;-55
2023/03/12 11:43:32;;;;;;;3.90;2.50;;;13.70;80.90;;;;;;5016094;28;20418;-55
2023/03/12 11:46:01;;;;;;;3.20;2.70;;;;;;;;;;5030517;28;20052;-55
2023/03/12 11:48:33;;;;;;;4.85;3.40;;;13.00;99.90;;;;;;5019385;28;20499;-56
2023/03/12 11:51:20;;;;;;;4.18;3.78;;;13.80;99.90;;;;;;5035117;28;20057;-56
2023/03/12 11:54:00;;;;;;;3.80;3.05;;;;;;;;;;5033457;28;20021;-55
2023/03/12 11:56:33;;;;;;;4.55;3.30;;;;;;;;;;5033247;28;20029;-56
2023/03/12 11:59:02;;;;;;;3.83;3.03;;;14.50;89.20;;;;;;5032754;28;20084;-56
2023/03/12 12:01:43;;;;;;;5.68;4.30;;;15.00;86.10;;;;;;5034858;28;20147;-56
2023/03/12 12:04:14;;;;;;;4.13;2.97;;;15.20;82.70;;;;;;5035896;28;20048;-56
2023/03/12 12:06:55;;;;;;;3.53;2.70;;;15.00;81.70;;;;;;5035542;28;20033;-56
2023/03/12 12:09:47;;;;;;;4.00;3.13;;;14.30;79.90;;;;;;5035347;28;20061;-56
2023/03/12 12:12:31;;;;;;;4.68;3.17;;;14.10;82.80;;;;;;5035769;28;20045;-57
2023/03/12 12:15:00;;;;;;;3.03;2.65;;;13.80;81.20;;;;;;5036251;28;20109;-56
2023/03/12 12:17:47;;;;;;;3.00;2.20;;;13.80;82.90;;;;;;5036037;28;20120;-55
2023/03/12 12:20:29;;;;;;;3.08;2.58;;;13.70;80.90;;;;;;5036204;28;20022;-56
2023/03/12 12:23:17;;;;;;;3.03;2.25;;;13.70;81.00;;;;;;5036118;28;20037;-56
2023/03/12 12:25:58;;;;;;;3.50;3.20;;;14.10;80.70;;;;;;5036094;28;20568;-56
2023/03/12 12:28:38;;;;;;;4.85;3.92;;;15.20;81.50;;;;;;5035746;28;20499;-56
2023/03/12 12:31:28;;;;;;;3.78;2.80;;;15.10;81.60;;;;;;5035848;28;20473;-56
2023/03/12 12:34:08;;;;;;;3.30;2.85;;;15.20;80.30;;;;;;5035683;28;20385;-56
2023/03/12 12:36:35;;;;;;;3.70;3.03;;;14.60;81.50;;;;;;5035610;28;20028;-56
2023/03/12 12:39:33;;;;;;;4.65;2.53;;;13.90;82.40;;;;;;5035040;28;20022;-55
2023/03/12 12:42:03;;;;;;;3.58;2.83;;;13.70;82.90;;;;;;5013566;28;20037;-55
2023/03/12 12:44:40;;;;;;;3.35;2.25;;;13.40;81.70;;;;;;5013443;28;20070;-56
2023/03/12 12:47:12;;;;;;;4.07;3.28;;;13.10;81.90;;;;;;5013678;28;20033;-55
2023/03/12 12:49:47;;;;;;;;;;;13.80;82.90;;;;;;5013884;28;20037;-55
2023/03/12 12:52:21;;;;;;;3.67;3.30;;;13.20;82.80;;;;;;5013543;28;20032;-55
2023/03/12 12:55:18;;;;;;;3.85;2.63;;;13.90;84.00;;;;;;5013536;28;20038;-56
2023/03/12 12:57:47;;;;;;;3.40;2.63;;;14.40;82.20;;;;;;5007264;28;20033;-57
2023/03/12 13:00:37;;;;;;;2.47;1.85;;;14.80;81.50;;;;;;4977847;28;20096;-57
2023/03/12 13:03:03;;;;;;;2.72;2.25;;;14.20;78.80;;;;;;4993932;28;20502;-56
2023/03/12 13:05:35;;;;;;;3.50;2.50;;;14.90;78.80;;;;;;4993062;28;20038;-57